Time;durP1;ratioP1;P1;durP2;ratioP2;P2;SDS_P1;SDS_P2;PMS_P1;PMS_P2;Temp;Humidity;BMP_temperature;BMP_pressure;BME280_temperature;BME280_humidity;BME280_pressure;Samples;Min_cycle;Max_cycle;Signal;HPM_P1;HPM_P2
2023/12/21 00:01:33;;;;;;;11.77;7.78;;;;;;;8.87;52.92;98098.63;4940842;28;20529;-76
2023/12/21 00:03:59;;;;;;;11.40;7.03;;;;;;;8.84;52.66;98085.91;4941207;28;20505;-76
2023/12/21 00:06:24;;;;;;;10.25;7.18;;;;;;;8.81;52.43;98086.94;4941046;28;20030;-77
2023/12/21 00:08:50;;;;;;;11.38;7.03;;;;;;;8.85;52.44;98092.72;4957199;28;20125;-77
2023/12/21 00:11:15;;;;;;;9.55;6.85;;;;;;;8.85;52.68;98101.34;4941582;28;20041;-77
2023/12/21 00:13:41;;;;;;;13.02;6.90;;;;;;;8.79;52.63;98086.25;4957226;28;20031;-77
2023/12/21 00:16:06;;;;;;;9.32;6.13;;;;;;;8.83;52.66;98102.44;4925606;28;20038;-77
2023/12/21 00:18:32;;;;;;;11.45;6.28;;;;;;;8.77;52.50;98095.94;4941224;28;20064;-77
2023/12/21 00:20:57;;;;;;;11.73;7.32;;;;;;;8.81;52.76;98094.75;4956674;28;20068;-76
2023/12/21 00:23:23;;;;;;;10.30;6.43;;;;;;;8.79;53.07;98088.84;4940761;28;20054;-77
2023/12/21 00:25:48;;;;;;;12.27;7.32;;;;;;;8.81;52.95;98099.16;4940451;28;20113;-76
2023/12/21 00:28:14;;;;;;;9.68;6.32;;;;;;;8.81;52.86;98088.75;4940937;28;20038;-77
2023/12/21 00:30:40;;;;;;;10.60;6.72;;;;;;;8.81;52.80;98093.94;4940908;28;20051;-77
2023/12/21 00:33:05;;;;;;;9.60;6.65;;;;;;;8.79;52.95;98094.06;4941216;28;20046;-77
2023/12/21 00:35:30;;;;;;;9.27;6.32;;;;;;;8.77;52.89;98085.53;4974121;28;20042;-75
2023/12/21 00:37:57;;;;;;;10.00;6.68;;;;;;;8.78;52.97;98087.19;4941698;28;20031;-76
2023/12/21 00:40:23;;;;;;;9.18;6.22;;;;;;;8.75;52.58;98077.03;4940961;28;20118;-76
2023/12/21 00:42:48;;;;;;;8.23;5.70;;;;;;;8.78;52.95;98084.59;4940795;28;20395;-77
2023/12/21 00:45:14;;;;;;;9.63;6.30;;;;;;;8.77;52.98;98082.09;4941056;28;20034;-77
2023/12/21 00:47:40;;;;;;;8.38;5.70;;;;;;;8.74;53.04;98070.16;4941091;28;20039;-76
2023/12/21 00:50:06;;;;;;;8.65;5.60;;;;;;;8.68;53.03;98063.69;4957032;28;20415;-77
2023/12/21 00:52:31;;;;;;;7.75;5.20;;;;;;;8.68;52.88;98063.69;4956923;28;20019;-76
2023/12/21 00:54:57;;;;;;;9.82;6.18;;;;;;;8.66;53.19;98062.13;4956757;28;20038;-76
2023/12/21 00:57:23;;;;;;;8.73;5.53;;;;;;;8.67;52.75;98063.81;4940521;28;20046;-78
2023/12/21 00:59:48;;;;;;;9.00;5.40;;;;;;;8.67;52.75;98069.00;4940582;28;20027;-77
2023/12/21 01:02:14;;;;;;;8.45;5.50;;;;;;;8.65;53.21;98058.72;4974014;28;20102;-77
2023/12/21 01:04:39;;;;;;;8.45;5.18;;;;;;;8.65;53.42;98055.28;4940419;28;20101;-76
2023/12/21 01:07:05;;;;;;;8.20;5.35;;;;;;;8.63;52.91;98044.16;4956463;28;20027;-77
2023/12/21 01:09:30;;;;;;;10.70;5.13;;;;;;;8.62;52.98;98045.97;4956658;28;20041;-76
2023/12/21 01:11:56;;;;;;;8.20;4.90;;;;;;;8.58;53.01;98039.31;4940858;28;20459;-76
2023/12/21 01:14:22;;;;;;;10.02;5.30;;;;;;;8.59;52.88;98037.56;4956196;28;20129;-77
2023/12/21 01:16:48;;;;;;;6.97;4.90;;;;;;;8.57;52.98;98037.69;4940439;28;20095;-77
2023/12/21 01:19:13;;;;;;;11.18;4.93;;;;;;;8.61;52.72;98040.88;4940517;28;20074;-77
2023/12/21 01:21:39;;;;;;;7.40;4.70;;;;;;;8.60;53.14;98042.66;4956737;28;20030;-78
2023/12/21 01:24:05;;;;;;;6.80;4.80;;;;;;;8.59;53.06;98040.19;4940517;28;20474;-77
2023/12/21 01:26:31;;;;;;;8.35;4.82;;;;;;;8.56;53.17;98036.03;4940449;28;20054;-78
2023/12/21 01:28:56;;;;;;;7.38;4.43;;;;;;;8.56;53.12;98041.22;4924561;28;20402;-77
2023/12/21 01:31:22;;;;;;;7.00;4.75;;;;;;;8.55;53.03;98043.97;4940434;28;20127;-78
2023/12/21 01:33:47;;;;;;;7.05;4.25;;;;;;;8.52;52.87;98039.81;4956912;28;20035;-76
2023/12/21 01:36:13;;;;;;;10.20;4.82;;;;;;;8.48;53.17;98030.63;4939996;28;20462;-77
2023/12/21 01:38:38;;;;;;;9.10;5.18;;;;;;;8.48;52.97;98026.22;4955898;28;20038;-76
2023/12/21 01:41:04;;;;;;;7.80;4.70;;;;;;;8.48;53.18;98036.63;4940328;28;20035;-76
2023/12/21 01:43:29;;;;;;;7.18;4.55;;;;;;;8.47;53.36;98026.34;4940334;28;20031;-76
2023/12/21 01:45:55;;;;;;;7.30;4.75;;;;;;;8.44;53.20;98027.41;4973394;28;20035;-74
2023/12/21 01:48:21;;;;;;;6.55;4.65;;;;;;;8.42;53.28;98024.06;4923460;28;20045;-75
2023/12/21 01:50:46;;;;;;;7.25;4.68;;;;;;;8.40;53.36;98023.38;4940723;28;20469;-75
2023/12/21 01:53:13;;;;;;;5.90;4.28;;;;;;;8.39;53.19;98013.09;4959836;28;20034;-76
2023/12/21 01:55:38;;;;;;;6.40;4.28;;;;;;;8.38;53.51;98017.47;4944035;28;20546;-75
2023/12/21 01:58:04;;;;;;;8.90;4.80;;;;;;;8.36;53.37;98011.56;4943899;28;20110;-76
2023/12/21 02:00:30;;;;;;;8.02;4.28;;;;;;;8.33;53.07;98007.44;4943258;28;20483;-75
2023/12/21 02:02:55;;;;;;;7.47;4.43;;;;;;;8.34;53.05;98009.06;4959717;28;20054;-75
2023/12/21 02:05:21;;;;;;;7.43;4.53;;;;;;;8.35;53.43;98009.91;4959908;28;20038;-76
2023/12/21 02:07:47;;;;;;;7.65;4.32;;;;;;;8.33;53.34;98011.78;4976711;28;20395;-78
2023/12/21 02:10:13;;;;;;;6.55;4.18;;;;;;;8.29;53.42;98006.00;4943478;28;20410;-75
2023/12/21 02:12:38;;;;;;;6.65;4.38;;;;;;;8.27;53.30;97999.28;4959319;28;20467;-76
2023/12/21 02:15:05;;;;;;;7.93;4.30;;;;;;;8.26;53.32;98002.84;4959265;28;20039;-75
2023/12/21 02:17:31;;;;;;;8.07;4.30;;;;;;;8.26;53.48;98008.03;4943554;28;20034;-76
2023/12/21 02:19:56;;;;;;;6.60;4.65;;;;;;;8.24;53.50;98009.91;4943309;28;20390;-75
2023/12/21 02:22:22;;;;;;;6.72;4.18;;;;;;;8.20;53.72;98005.91;4943253;28;20034;-76
2023/12/21 02:24:47;;;;;;;6.80;4.03;;;;;;;8.20;53.56;98004.13;4926987;28;20427;-76
2023/12/21 02:27:13;;;;;;;7.00;4.57;;;;;;;8.17;53.58;98000.94;4943763;28;20090;-74
2023/12/21 02:29:38;;;;;;;7.43;4.50;;;;;;;8.11;53.58;97997.91;4943080;28;20035;-76
2023/12/21 02:32:04;;;;;;;5.82;4.03;;;;;;;8.12;53.96;98004.72;4959108;28;20384;-74
2023/12/21 02:34:30;;;;;;;7.85;4.93;;;;;;;8.11;53.67;98007.44;4926958;28;20045;-75
2023/12/21 02:36:56;;;;;;;6.40;4.28;;;;;;;8.06;53.48;97994.81;4959211;28;20114;-75
2023/12/21 02:39:21;;;;;;;7.00;4.95;;;;;;;8.09;53.92;97988.56;4926478;28;20038;-74
2023/12/21 02:41:47;;;;;;;6.95;4.72;;;;;;;8.07;53.37;97988.66;4958827;28;20057;-76
2023/12/21 02:44:13;;;;;;;7.10;4.57;;;;;;;8.05;53.87;97979.31;4943144;28;20042;-75
2023/12/21 02:46:38;;;;;;;7.05;4.43;;;;;;;7.95;53.87;97969.66;4958717;28;20038;-75
2023/12/21 02:49:04;;;;;;;7.38;4.18;;;;;;;8.02;53.72;97987.34;4958968;28;20065;-76
2023/12/21 02:51:29;;;;;;;8.48;4.55;;;;;;;7.94;53.56;97977.59;4942845;28;20070;-76
2023/12/21 02:53:55;;;;;;;6.95;4.47;;;;;;;7.96;54.00;97979.09;4942854;28;20482;-76
2023/12/21 02:56:20;;;;;;;7.20;4.53;;;;;;;7.93;53.78;97976.75;4958674;28;20065;-75
2023/12/21 02:58:45;;;;;;;11.63;4.60;;;;;;;7.91;54.25;97983.03;4921624;29;20023;-76
2023/12/21 03:01:11;;;;;;;9.25;4.93;;;;;;;7.85;53.89;97975.69;4939645;29;20043;-76
2023/12/21 03:03:36;;;;;;;7.00;4.50;;;;;;;7.87;53.80;97971.19;4953277;28;20403;-75
2023/12/21 03:06:03;;;;;;;6.55;4.43;;;;;;;7.86;53.99;97972.13;4926696;28;20128;-76
2023/12/21 03:08:28;;;;;;;6.45;4.68;;;;;;;7.82;53.90;97973.34;4958659;28;20169;-76
2023/12/21 03:10:54;;;;;;;9.50;4.85;;;;;;;7.81;53.64;97976.88;4942285;28;20486;-77
2023/12/21 03:13:19;;;;;;;9.38;5.00;;;;;;;7.81;53.85;97971.66;4942441;28;20038;-76
2023/12/21 03:15:45;;;;;;;8.18;5.28;;;;;;;7.79;53.50;97969.19;4958576;28;20035;-76
2023/12/21 03:18:10;;;;;;;8.18;5.18;;;;;;;7.73;54.06;97967.91;4958201;28;20034;-75
2023/12/21 03:20:36;;;;;;;7.88;5.20;;;;;;;7.76;53.75;97978.06;4958323;28;20030;-76
2023/12/21 03:23:01;;;;;;;10.40;5.53;;;;;;;7.74;54.27;97966.94;4940944;29;20027;-76
2023/12/21 03:25:27;;;;;;;8.90;5.07;;;;;;;7.69;54.08;97956.09;4919832;29;20062;-78
2023/12/21 03:27:52;;;;;;;7.88;5.47;;;;;;;7.70;54.00;97957.75;4935880;29;20499;-76
2023/12/21 03:30:18;;;;;;;6.57;5.10;;;;;;;7.70;53.70;97949.94;4904250;29;20078;-76
2023/12/21 03:32:43;;;;;;;7.75;5.07;;;;;;;7.68;53.98;97944.03;4904233;29;20040;-77
2023/12/21 03:35:09;;;;;;;7.68;5.20;;;;;;;7.67;53.62;97945.00;4920181;29;20047;-76
2023/12/21 03:37:36;;;;;;;9.90;5.88;;;;;;;7.67;53.73;97938.94;4919911;29;20039;-77
2023/12/21 03:40:01;;;;;;;10.48;5.78;;;;;;;7.64;53.91;97940.03;4935831;29;20093;-75
2023/12/21 03:42:26;;;;;;;9.30;5.93;;;;;;;7.63;54.05;97943.56;4903976;29;20032;-77
2023/12/21 03:44:52;;;;;;;10.00;5.60;;;;;;;7.64;53.82;97944.38;4903913;29;20039;-76
2023/12/21 03:47:17;;;;;;;8.85;5.68;;;;;;;7.56;54.37;97927.63;4918708;29;20048;-76
2023/12/21 03:49:43;;;;;;;10.65;5.80;;;;;;;7.61;54.05;97942.88;4903860;29;20106;-75
2023/12/21 03:52:08;;;;;;;10.45;6.03;;;;;;;7.59;54.19;97945.56;4935423;29;20034;-77
2023/12/21 03:54:34;;;;;;;13.13;5.65;;;;;;;7.53;53.90;97940.03;4935278;29;20107;-76
2023/12/21 03:56:59;;;;;;;9.65;6.05;;;;;;;7.56;54.33;97947.59;4903471;29;20032;-75
2023/12/21 03:59:25;;;;;;;8.48;5.53;;;;;;;7.54;54.13;97939.91;4934932;29;20063;-74
2023/12/21 04:01:51;;;;;;;8.70;5.65;;;;;;;7.53;54.62;97934.84;4941781;29;20090;-75
2023/12/21 04:04:17;;;;;;;9.63;5.78;;;;;;;7.52;54.32;97943.56;4954058;29;20026;-75
2023/12/21 04:06:42;;;;;;;8.43;5.40;;;;;;;7.51;54.38;97929.75;4953283;29;20514;-75
2023/12/21 04:09:08;;;;;;;7.50;5.30;;;;;;;7.50;53.94;97933.28;4921629;29;20039;-75
2023/12/21 04:11:33;;;;;;;7.38;5.13;;;;;;;7.42;54.46;97923.50;4938153;29;20043;-75
2023/12/21 04:13:59;;;;;;;8.30;5.20;;;;;;;7.32;54.57;97908.72;4937734;29;20393;-75
2023/12/21 04:16:25;;;;;;;8.55;5.32;;;;;;;7.42;54.20;97928.69;4954304;29;20042;-76
2023/12/21 04:18:50;;;;;;;9.15;5.18;;;;;;;7.36;54.49;97917.94;4954300;29;20571;-75
2023/12/21 04:21:16;;;;;;;9.40;5.38;;;;;;;7.38;54.24;97922.06;4921131;29;20530;-76
2023/12/21 04:23:41;;;;;;;8.90;5.47;;;;;;;7.35;54.30;97914.53;4953083;29;20047;-75
2023/12/21 04:26:06;;;;;;;10.27;5.65;;;;;;;7.34;54.22;97906.84;4953537;29;20087;-76
2023/12/21 04:28:33;;;;;;;8.43;5.55;;;;;;;7.33;54.74;97910.38;4953668;29;20035;-78
2023/12/21 04:30:58;;;;;;;12.43;5.93;;;;;;;7.31;54.38;97904.50;4953452;29;20502;-77
2023/12/21 04:33:24;;;;;;;8.93;5.47;;;;;;;7.24;54.79;97898.91;4936571;29;20039;-75
2023/12/21 04:35:49;;;;;;;11.07;5.85;;;;;;;7.28;54.44;97905.53;4887359;29;20039;-75
2023/12/21 04:38:14;;;;;;;8.13;5.25;;;;;;;7.22;54.48;97913.78;4934644;29;20028;-74
2023/12/21 04:40:40;;;;;;;8.70;5.45;;;;;;;7.24;54.41;97922.28;4918557;29;20032;-75
2023/12/21 04:43:08;;;;;;;10.75;5.65;;;;;;;7.25;54.47;97939.53;4902779;29;20501;-80
2023/12/21 04:45:34;;;;;;;9.27;5.38;;;;;;;7.23;54.87;97941.41;4935493;29;20047;-77
2023/12/21 04:47:59;;;;;;;8.15;5.40;;;;;;;7.18;54.37;97930.53;4918354;29;20412;-76
2023/12/21 04:50:25;;;;;;;9.15;5.22;;;;;;;7.22;54.83;97947.53;4902744;29;20139;-76
2023/12/21 04:52:52;;;;;;;8.82;5.20;;;;;;;7.21;54.79;97953.66;4918266;29;20059;-76
2023/12/21 04:55:17;;;;;;;7.53;5.25;;;;;;;7.20;54.97;97960.63;4929374;29;20472;-80
2023/12/21 04:57:43;;;;;;;6.97;4.72;;;;;;;7.23;57.97;97954.41;4953816;29;20054;-78
2023/12/21 05:00:10;;;;;;;9.93;3.70;;;;;;;8.01;75.03;97954.53;4956318;29;20035;-79
2023/12/21 05:02:35;;;;;;;7.70;3.47;;;;;;;8.03;70.67;97963.84;4937814;29;20376;-78
2023/12/21 05:05:01;;;;;;;6.30;3.42;;;;;;;7.91;65.61;97952.66;4953941;29;20068;-78
2023/12/21 05:07:26;;;;;;;7.63;3.20;;;;;;;7.85;64.66;97966.13;4937084;29;20388;-78
2023/12/21 05:09:58;;;;;;;8.20;3.75;;;;;;;7.85;64.93;97963.53;4937622;29;20031;-77
2023/12/21 05:12:24;;;;;;;5.82;3.70;;;;;;;7.85;64.44;97973.91;4954738;28;20562;-79
2023/12/21 05:14:50;;;;;;;7.63;4.50;;;;;;;7.80;63.18;97976.03;4954017;29;20110;-75
2023/12/21 05:17:15;;;;;;;7.88;4.18;;;;;;;7.73;62.89;97982.66;4954043;28;20028;-76
2023/12/21 05:19:42;;;;;;;8.45;4.78;;;;;;;7.67;62.21;97980.50;4951748;29;20039;-77
2023/12/21 05:22:07;;;;;;;6.30;4.47;;;;;;;7.59;62.15;97973.31;4922215;29;20443;-77
2023/12/21 05:24:33;;;;;;;8.05;4.63;;;;;;;7.55;61.23;97972.72;4937039;29;20141;-78
2023/12/21 05:26:59;;;;;;;8.13;4.78;;;;;;;7.53;61.03;97981.59;4935807;29;20044;-78
2023/12/21 05:29:25;;;;;;;10.82;5.53;;;;;;;7.46;60.62;97967.41;4941600;29;20082;-76
2023/12/21 05:31:50;;;;;;;9.70;4.97;;;;;;;7.45;60.63;97982.16;4925034;29;20043;-77
2023/12/21 05:34:16;;;;;;;11.80;5.60;;;;;;;7.41;60.06;97991.13;4958467;28;20494;-76
2023/12/21 05:36:41;;;;;;;7.95;5.75;;;;;;;7.34;59.93;97985.56;4941376;29;20031;-76
2023/12/21 05:39:09;;;;;;;7.65;5.55;;;;;;;7.35;59.73;97997.63;4956878;29;20055;-76
2023/12/21 05:41:34;;;;;;;9.13;5.63;;;;;;;7.27;59.55;97986.94;4941622;29;20035;-76
2023/12/21 05:44:00;;;;;;;10.27;5.82;;;;;;;7.30;59.79;97998.88;4940903;29;20046;-74
2023/12/21 05:46:25;;;;;;;10.10;6.03;;;;;;;7.30;59.19;97994.50;4925253;29;20046;-75
2023/12/21 05:48:51;;;;;;;13.52;6.65;;;;;;;7.29;59.00;97998.06;4956638;29;20027;-75
2023/12/21 05:51:16;;;;;;;11.30;6.57;;;;;;;7.25;58.81;97992.25;4937996;29;20474;-75
2023/12/21 05:53:42;;;;;;;10.02;6.15;;;;;;;7.30;58.66;97994.50;4945678;29;20035;-74
2023/12/21 05:56:07;;;;;;;10.00;6.45;;;;;;;7.34;58.31;98002.91;4921494;29;20031;-75
2023/12/21 05:58:33;;;;;;;10.77;6.85;;;;;;;7.37;58.14;97997.50;4938162;29;20023;-75
2023/12/21 06:00:59;;;;;;;11.52;6.53;;;;;;;7.49;57.85;97996.56;4922192;29;20051;-74
2023/12/21 06:03:24;;;;;;;10.77;6.25;;;;;;;7.96;56.65;98002.50;4937293;29;20087;-75
2023/12/21 06:05:50;;;;;;;9.27;6.13;;;;;;;8.34;55.45;97988.25;4939850;29;20051;-75
2023/12/21 06:08:15;;;;;;;10.32;6.28;;;;;;;8.97;53.75;97995.44;4956368;29;20023;-74
2023/12/21 06:10:41;;;;;;;12.45;6.60;;;;;;;9.52;52.56;97990.06;4940305;29;20040;-75
2023/12/21 06:13:06;;;;;;;13.70;6.90;;;;;;;10.05;51.58;97989.06;4924102;29;20066;-75
2023/12/21 06:15:33;;;;;;;12.32;7.00;;;;;;;10.53;50.34;97986.72;4940003;29;20154;-74
2023/12/21 06:17:58;;;;;;;14.88;6.90;;;;;;;11.22;48.72;97998.84;4940614;29;20491;-75
2023/12/21 06:20:24;;;;;;;15.45;7.43;;;;;;;12.09;46.73;98003.03;4940009;29;20046;-75
2023/12/21 06:22:49;;;;;;;12.43;8.40;;;;;;;13.13;44.86;98007.06;4955774;29;20062;-77
2023/12/21 06:25:15;;;;;;;13.65;8.90;;;;;;;14.10;42.51;98007.03;4920014;29;20063;-77
2023/12/21 06:27:40;;;;;;;14.35;8.40;;;;;;;15.12;40.33;98013.06;4919752;29;20062;-78
2023/12/21 06:30:07;;;;;;;12.45;8.20;;;;;;;16.06;38.39;98023.97;4921236;29;20032;-76
2023/12/21 06:32:32;;;;;;;12.40;8.75;;;;;;;17.02;36.61;98018.59;4905646;29;20024;-76
2023/12/21 06:34:58;;;;;;;13.73;8.80;;;;;;;17.97;34.80;98019.09;4921374;29;20043;-77
2023/12/21 06:37:23;;;;;;;15.27;8.63;;;;;;;18.81;32.99;98023.97;4920289;29;20042;-75
2023/12/21 06:39:49;;;;;;;14.18;9.35;;;;;;;19.65;31.72;98025.97;4955724;29;20027;-76
2023/12/21 06:42:14;;;;;;;15.13;9.50;;;;;;;20.36;30.70;98024.97;4914467;29;20035;-76
2023/12/21 06:44:40;;;;;;;13.48;9.80;;;;;;;21.05;29.39;98039.09;4920181;29;20047;-77
2023/12/21 06:47:05;;;;;;;14.77;9.93;;;;;;;21.62;28.62;98031.59;4956997;28;20071;-77
2023/12/21 06:49:31;;;;;;;14.02;9.60;;;;;;;21.96;28.21;98040.34;4939495;29;21016;-74
2023/12/21 06:51:56;;;;;;;15.20;10.05;;;;;;;22.19;27.79;98036.41;4956954;28;20063;-76
2023/12/21 06:54:21;;;;;;;18.73;9.80;;;;;;;22.32;27.56;98038.25;4939907;29;20035;-74
2023/12/21 06:56:47;;;;;;;17.00;8.77;;;;;;;22.28;29.54;98050.28;4956314;29;20023;-80
2023/12/21 06:59:13;;;;;;;10.07;6.00;;;;;;;21.94;34.34;98054.88;4923699;29;20523;-74
2023/12/21 07:01:38;;;;;;;12.27;7.70;;;;;;;22.13;32.09;98053.19;4920513;29;20028;-76
2023/12/21 07:04:04;;;;;;;21.50;9.90;;;;;;;22.06;31.77;98058.53;4929924;29;20043;-78
2023/12/21 07:06:29;;;;;;;17.30;11.18;;;;;;;21.98;30.91;98050.75;4955869;29;20053;-80
2023/12/21 07:08:55;;;;;;;18.65;11.77;;;;;;;21.94;30.31;98054.88;4923910;29;20122;-77
2023/12/21 07:11:20;;;;;;;22.70;11.77;;;;;;;21.88;30.44;98059.16;4923893;29;20102;-74
2023/12/21 07:13:46;;;;;;;24.40;13.40;;;;;;;21.93;29.91;98050.56;4939289;29;20039;-76
2023/12/21 07:16:11;;;;;;;21.48;12.73;;;;;;;21.82;29.99;98052.84;4939113;29;20051;-75
2023/12/21 07:18:37;;;;;;;22.70;12.90;;;;;;;21.77;29.83;98059.78;4935705;29;20081;-76
2023/12/21 07:21:03;;;;;;;18.50;12.20;;;;;;;21.66;29.71;98055.91;4923092;29;20035;-75
2023/12/21 07:23:29;;;;;;;20.27;11.50;;;;;;;21.55;30.03;98053.88;4935716;29;20040;-76
2023/12/21 07:25:54;;;;;;;16.08;10.25;;;;;;;21.54;29.62;98065.50;4914526;29;20114;-76
2023/12/21 07:28:20;;;;;;;15.27;9.23;;;;;;;21.52;29.35;98055.09;4938819;29;20028;-78
2023/12/21 07:30:45;;;;;;;13.68;9.30;;;;;;;21.68;29.32;98059.19;4921442;29;21461;-77
2023/12/21 07:33:11;;;;;;;12.20;8.10;;;;;;;21.79;28.80;98058.56;4938776;29;20566;-77
2023/12/21 07:35:38;;;;;;;15.07;8.60;;;;;;;22.01;28.11;98053.00;4939172;29;20114;-77
2023/12/21 07:38:03;;;;;;;11.90;8.05;;;;;;;22.21;28.03;98053.78;4938791;29;20130;-79
2023/12/21 07:40:29;;;;;;;14.27;8.32;;;;;;;22.44;27.47;98049.88;4939350;29;20027;-77
2023/12/21 07:42:54;;;;;;;14.63;8.50;;;;;;;22.65;27.40;98061.25;4923247;29;20027;-76
2023/12/21 07:45:21;;;;;;;11.43;6.18;;;;;;;22.74;32.03;98068.75;4923563;29;20043;-79
2023/12/21 07:47:46;;;;;;;10.77;6.60;;;;;;;22.97;30.80;98077.25;4938045;29;20047;-81
2023/12/21 07:50:12;;;;;;;12.23;7.07;;;;;;;23.10;29.36;98072.69;4950365;29;20028;-76
2023/12/21 07:52:37;;;;;;;12.60;7.78;;;;;;;23.25;28.65;98064.41;4922818;29;20027;-75
2023/12/21 07:55:04;;;;;;;12.70;7.63;;;;;;;23.46;27.98;98070.41;4933245;29;20039;-77
2023/12/21 07:57:30;;;;;;;13.23;8.02;;;;;;;23.64;27.24;98073.13;4911532;29;20411;-77
2023/12/21 07:59:56;;;;;;;13.25;8.77;;;;;;;23.77;26.83;98072.19;4938317;29;20062;-76
2023/12/21 08:02:21;;;;;;;14.80;10.00;;;;;;;23.82;26.59;98061.69;4937790;29;20519;-83
2023/12/21 08:04:47;;;;;;;12.00;8.60;;;;;;;23.90;28.16;98068.63;4929088;29;20042;-75
2023/12/21 08:07:12;;;;;;;12.85;8.60;;;;;;;23.93;29.39;98062.88;4947478;29;20083;-72
2023/12/21 08:09:37;;;;;;;14.25;7.63;;;;;;;24.01;30.20;98067.91;4943178;29;20420;-77
2023/12/21 08:12:03;;;;;;;11.35;7.43;;;;;;;24.07;30.84;98065.38;4942919;29;20035;-75
2023/12/21 08:14:31;;;;;;;10.65;7.60;;;;;;;24.13;30.61;98068.00;4916671;29;20027;-75
2023/12/21 08:16:59;;;;;;;;;;;;;;;24.20;30.55;98065.25;4954730;29;20027;-75
2023/12/21 08:19:25;;;;;;;12.88;7.20;;;;;;;24.24;30.56;98068.28;4939155;29;20366;-77
2023/12/21 08:21:50;;;;;;;15.32;7.50;;;;;;;24.28;30.63;98058.81;4922670;29;20066;-80
2023/12/21 08:24:16;;;;;;;12.93;7.10;;;;;;;24.41;30.01;98065.84;4938581;29;20471;-75
2023/12/21 08:26:41;;;;;;;12.25;6.72;;;;;;;24.47;30.73;98057.78;4938112;29;20043;-77
2023/12/21 08:29:07;;;;;;;12.13;7.28;;;;;;;24.62;30.17;98061.94;4922461;29;20031;-77
2023/12/21 08:31:32;;;;;;;14.32;6.55;;;;;;;24.88;30.95;98068.78;4922141;29;20066;-76
2023/12/21 08:33:58;;;;;;;14.23;6.95;;;;;;;25.18;29.61;98068.78;4953153;29;20047;-74
2023/12/21 08:36:23;;;;;;;15.65;7.85;;;;;;;25.33;28.93;98065.69;4922047;29;20134;-73
2023/12/21 08:38:49;;;;;;;19.60;10.73;;;;;;;25.50;28.34;98065.06;4953725;29;20059;-77
2023/12/21 08:41:14;;;;;;;21.83;12.57;;;;;;;25.61;27.08;98061.56;4922957;29;20510;-83
2023/12/21 08:43:40;;;;;;;21.92;13.50;;;;;;;25.66;26.60;98048.31;4937505;29;20511;-76
2023/12/21 08:46:05;;;;;;;21.17;12.23;;;;;;;25.82;27.36;98047.66;4954442;29;20054;-71
2023/12/21 08:48:31;;;;;;;24.92;13.93;;;;;;;26.03;26.15;98040.13;4937425;29;20114;-71
2023/12/21 08:50:56;;;;;;;25.77;13.30;;;;;;;26.23;26.22;98030.88;4937184;29;20035;-71
2023/12/21 08:53:22;;;;;;;27.95;16.27;;;;;;;26.56;25.57;98030.22;4920178;29;20061;-81
2023/12/21 08:55:47;;;;;;;33.28;19.08;;;;;;;26.66;23.53;98019.75;4936840;29;20031;-78
2023/12/21 08:58:13;;;;;;;34.20;19.15;;;;;;;26.66;24.15;98027.78;4948976;29;20098;-78
2023/12/21 09:00:39;;;;;;;43.10;20.10;;;;;;;26.54;24.33;98022.41;4926304;29;20039;-73
2023/12/21 09:03:04;;;;;;;45.85;23.15;;;;;;;26.51;23.38;98019.41;4945511;29;20043;-76
2023/12/21 09:05:30;;;;;;;42.92;20.73;;;;;;;26.45;24.45;98009.66;4913044;29;20569;-84
2023/12/21 09:07:55;;;;;;;44.05;21.45;;;;;;;26.13;24.21;98015.44;4921988;29;20043;-88
2023/12/21 09:10:21;;;;;;;45.03;22.80;;;;;;;26.08;24.31;98018.81;4920179;29;20558;-90
2023/12/21 09:12:47;;;;;;;42.63;23.10;;;;;;;25.90;23.91;98009.06;4933232;29;20067;-88
2023/12/21 09:15:13;;;;;;;38.25;20.73;;;;;;;25.64;25.16;97999.66;4931981;29;20042;-84
2023/12/21 09:17:38;;;;;;;44.40;21.75;;;;;;;25.70;24.38;98001.41;4949396;28;20023;-70
2023/12/21 09:20:04;;;;;;;40.88;21.80;;;;;;;25.93;24.52;98007.75;4943804;29;20108;-68
2023/12/21 09:22:30;;;;;;;41.05;21.65;;;;;;;26.32;24.18;97992.03;4936929;29;20040;-67
2023/12/21 09:24:57;;;;;;;36.75;20.17;;;;;;;26.56;23.49;97999.97;4953678;28;20034;-69
2023/12/21 09:27:23;;;;;;;36.65;20.45;;;;;;;26.82;23.22;98004.78;4940013;28;20097;-69
2023/12/21 09:29:49;;;;;;;34.58;19.38;;;;;;;27.15;22.48;97994.34;4956093;28;20101;-69
2023/12/21 09:32:14;;;;;;;44.35;20.50;;;;;;;27.28;22.10;97977.97;4973531;28;20026;-73
2023/12/21 09:34:40;;;;;;;37.53;21.08;;;;;;;27.48;21.98;97971.31;4939217;28;20054;-73
2023/12/21 09:37:06;;;;;;;38.20;21.10;;;;;;;27.98;21.54;97973.91;4955356;28;20030;-73
2023/12/21 09:39:32;;;;;;;45.22;21.45;;;;;;;28.62;20.73;97982.44;4938509;28;20131;-73
2023/12/21 09:42:01;;;;;;;46.47;21.90;;;;;;;29.34;20.09;97980.44;4956270;28;20043;-74
2023/12/21 09:44:27;;;;;;;50.65;22.00;;;;;;;30.18;19.10;97983.34;4941300;28;20066;-73
2023/12/21 09:46:53;;;;;;;52.30;22.95;;;;;;;30.98;18.42;97980.34;4940170;28;20118;-73
2023/12/21 09:49:18;;;;;;;42.78;21.95;;;;;;;31.73;17.48;97987.88;4940389;28;20109;-74
2023/12/21 09:51:44;;;;;;;42.05;21.02;;;;;;;32.50;16.72;97984.88;4955941;28;20035;-72
2023/12/21 09:54:09;;;;;;;39.30;21.50;;;;;;;32.76;16.50;97982.06;4939823;28;20043;-74
2023/12/21 09:56:35;;;;;;;41.28;21.73;;;;;;;33.25;16.30;97986.56;4940048;28;20047;-75
2023/12/21 09:59:00;;;;;;;33.90;19.15;;;;;;;33.61;15.71;97983.53;4939846;28;20407;-72
2023/12/21 10:01:26;;;;;;;45.65;19.80;;;;;;;34.04;15.34;97985.53;4955827;28;20030;-74
2023/12/21 10:03:52;;;;;;;32.67;19.63;;;;;;;34.40;14.93;97975.06;4939791;28;20027;-74
2023/12/21 10:06:17;;;;;;;36.05;19.55;;;;;;;34.71;14.81;97977.34;4956030;28;20114;-74
2023/12/21 10:08:43;;;;;;;39.15;18.92;;;;;;;35.02;14.45;97971.47;4956011;28;20085;-76
2023/12/21 10:11:08;;;;;;;36.30;17.85;;;;;;;35.18;14.32;97974.72;4939989;28;20394;-73
2023/12/21 10:13:34;;;;;;;31.95;17.08;;;;;;;35.25;14.18;97961.63;4958424;28;20041;-74
2023/12/21 10:16:00;;;;;;;35.63;16.92;;;;;;;35.24;14.17;97953.75;4959581;28;20027;-74
2023/12/21 10:18:26;;;;;;;32.05;15.45;;;;;;;35.10;14.21;97951.81;4943503;28;20035;-73
2023/12/21 10:20:53;;;;;;;26.95;15.40;;;;;;;34.78;14.14;97945.28;4959538;28;20093;-73
2023/12/21 10:23:19;;;;;;;;;;;;;;;34.15;14.56;97943.69;4944005;28;20042;-74
2023/12/21 10:25:46;;;;;;;26.48;13.63;;;;;;;33.58;14.91;97948.13;4976406;28;19924;-73
2023/12/21 10:28:11;;;;;;;26.13;14.63;;;;;;;32.90;15.66;97949.81;4959112;28;20067;-73
2023/12/21 10:30:38;;;;;;;23.40;13.33;;;;;;;32.13;16.32;97944.84;4959746;28;20053;-76
2023/12/21 10:33:04;;;;;;;22.40;11.18;;;;;;;31.46;16.85;97939.63;4976565;28;20035;-75
2023/12/21 10:35:29;;;;;;;21.67;10.85;;;;;;;30.90;17.15;97927.78;4959586;28;20395;-73
2023/12/21 10:37:55;;;;;;;14.75;9.65;;;;;;;30.28;17.20;97929.53;4942464;28;20064;-73
2023/12/21 10:40:23;;;;;;;23.05;11.82;;;;;;;29.65;17.83;97913.38;4959235;28;20089;-73
2023/12/21 10:42:49;;;;;;;18.13;12.65;;;;;;;29.23;18.62;97923.91;4959050;28;20418;-74
2023/12/21 10:45:16;;;;;;;18.25;10.45;;;;;;;28.84;18.61;97923.31;4943010;28;20038;-73
2023/12/21 10:48:00;;;;;;;15.05;10.75;;;;;;;28.33;19.05;97913.66;4926268;28;20051;-74
2023/12/21 10:50:26;;;;;;;19.27;9.45;;;;;;;28.04;19.26;97914.94;4959208;28;20117;-72
2023/12/21 10:52:51;;;;;;;14.50;9.60;;;;;;;27.76;19.24;97920.22;4942706;28;20062;-73
2023/12/21 10:55:17;;;;;;;15.45;9.88;;;;;;;27.48;19.77;97913.16;4958629;28;20479;-73
2023/12/21 10:57:43;;;;;;;10.77;8.68;;;;;;;27.20;20.12;97900.66;4942801;28;20054;-73
2023/12/21 11:00:15;;;;;;;14.80;9.60;;;;;;;26.98;20.39;97897.91;4943002;28;20081;-73
2023/12/21 11:02:47;;;;;;;18.65;9.75;;;;;;;26.73;20.27;97884.94;4943299;28;20035;-72
2023/12/21 11:05:20;;;;;;;16.77;10.70;;;;;;;26.52;21.01;97885.38;4943580;28;20023;-73
2023/12/21 11:07:50;;;;;;;16.38;9.77;;;;;;;26.30;20.68;97881.78;4944549;28;20031;-72
2023/12/21 11:10:17;;;;;;;14.63;9.30;;;;;;;26.06;21.31;97876.53;4941606;28;20043;-77
2023/12/21 11:12:42;;;;;;;11.70;8.38;;;;;;;25.85;21.13;97879.81;4942395;28;20038;-74
2023/12/21 11:15:08;;;;;;;13.88;9.02;;;;;;;25.67;21.76;97870.09;4942659;28;20034;-74
2023/12/21 11:17:33;;;;;;;14.10;8.50;;;;;;;25.44;22.06;97856.56;4926741;28;20038;-73
2023/12/21 11:19:59;;;;;;;13.50;8.20;;;;;;;25.26;21.91;97860.13;4942401;28;20027;-76
2023/12/21 11:22:24;;;;;;;11.48;7.45;;;;;;;25.09;22.09;97861.88;4941921;28;20058;-75
2023/12/21 11:25:00;;;;;;;14.77;7.47;;;;;;;24.88;22.59;97863.25;4956662;28;20411;-75